sensor_id;sensor_type;location;lat;lon;timestamp;P1;durP1;ratioP1;P2;durP2;ratioP2
29938;SDS011;16799;50.844;5.304;2022-09-27T00:01:35;8.57;;;2.83;;
29938;SDS011;16799;50.844;5.304;2022-09-27T00:04:01;3.03;;;2.13;;
29938;SDS011;16799;50.844;5.304;2022-09-27T00:06:27;10.40;;;3.30;;
29938;SDS011;16799;50.844;5.304;2022-09-27T00:08:55;5.67;;;4.07;;
29938;SDS011;16799;50.844;5.304;2022-09-27T00:11:29;2.30;;;1.93;;
29938;SDS011;16799;50.844;5.304;2022-09-27T00:14:03;7.63;;;3.30;;
29938;SDS011;16799;50.844;5.304;2022-09-27T00:16:31;9.13;;;2.60;;
29938;SDS011;16799;50.844;5.304;2022-09-27T00:18:59;6.67;;;1.77;;
29938;SDS011;16799;50.844;5.304;2022-09-27T00:21:26;1.23;;;1.00;;
29938;SDS011;16799;50.844;5.304;2022-09-27T00:23:54;3.53;;;0.97;;
29938;SDS011;16799;50.844;5.304;2022-09-27T00:26:19;12.33;;;2.10;;
29938;SDS011;16799;50.844;5.304;2022-09-27T00:28:45;5.20;;;1.60;;
29938;SDS011;16799;50.844;5.304;2022-09-27T00:31:21;4.03;;;1.63;;
29938;SDS011;16799;50.844;5.304;2022-09-27T00:33:53;1.53;;;1.43;;
29938;SDS011;16799;50.844;5.304;2022-09-27T00:36:20;6.17;;;2.73;;
29938;SDS011;16799;50.844;5.304;2022-09-27T00:38:47;10.23;;;1.93;;
29938;SDS011;16799;50.844;5.304;2022-09-27T00:41:14;16.97;;;3.27;;
29938;SDS011;16799;50.844;5.304;2022-09-27T00:43:55;5.50;;;2.60;;
29938;SDS011;16799;50.844;5.304;2022-09-27T00:48:55;9.47;;;2.80;;
29938;SDS011;16799;50.844;5.304;2022-09-27T00:51:35;13.47;;;2.60;;
29938;SDS011;16799;50.844;5.304;2022-09-27T00:54:03;8.07;;;2.80;;
29938;SDS011;16799;50.844;5.304;2022-09-27T00:56:30;6.33;;;2.77;;
29938;SDS011;16799;50.844;5.304;2022-09-27T00:59:06;7.97;;;2.80;;
29938;SDS011;16799;50.844;5.304;2022-09-27T01:01:38;3.23;;;2.07;;
29938;SDS011;16799;50.844;5.304;2022-09-27T01:04:11;3.63;;;2.50;;
29938;SDS011;16799;50.844;5.304;2022-09-27T01:06:39;1.60;;;1.20;;
29938;SDS011;16799;50.844;5.304;2022-09-27T01:09:08;5.10;;;1.97;;
29938;SDS011;16799;50.844;5.304;2022-09-27T01:11:56;1.60;;;1.50;;
29938;SDS011;16799;50.844;5.304;2022-09-27T01:18:16;4.70;;;1.47;;
29938;SDS011;16799;50.844;5.304;2022-09-27T01:28:50;1.20;;;1.10;;
29938;SDS011;16799;50.844;5.304;2022-09-27T01:32:13;3.63;;;1.43;;
29938;SDS011;16799;50.844;5.304;2022-09-27T01:34:25;1.40;;;1.20;;
29938;SDS011;16799;50.844;5.304;2022-09-27T01:39:32;3.63;;;1.83;;
29938;SDS011;16799;50.844;5.304;2022-09-27T01:42:17;7.73;;;2.50;;
29938;SDS011;16799;50.844;5.304;2022-09-27T01:45:03;2.40;;;1.40;;
29938;SDS011;16799;50.844;5.304;2022-09-27T01:47:42;1.90;;;1.00;;
29938;SDS011;16799;50.844;5.304;2022-09-27T01:50:15;9.80;;;1.20;;
29938;SDS011;16799;50.844;5.304;2022-09-27T01:52:50;1.20;;;1.10;;
29938;SDS011;16799;50.844;5.304;2022-09-27T01:55:22;3.33;;;1.47;;
29938;SDS011;16799;50.844;5.304;2022-09-27T01:57:56;10.80;;;1.30;;
29938;SDS011;16799;50.844;5.304;2022-09-27T02:00:27;8.00;;;1.50;;
29938;SDS011;16799;50.844;5.304;2022-09-27T02:03:06;4.67;;;1.87;;
29938;SDS011;16799;50.844;5.304;2022-09-27T02:05:59;6.03;;;1.30;;
29938;SDS011;16799;50.844;5.304;2022-09-27T02:08:45;5.03;;;2.83;;
29938;SDS011;16799;50.844;5.304;2022-09-27T02:11:33;2.57;;;1.80;;
29938;SDS011;16799;50.844;5.304;2022-09-27T02:14:06;2.17;;;1.70;;
29938;SDS011;16799;50.844;5.304;2022-09-27T02:19:26;14.27;;;2.50;;
29938;SDS011;16799;50.844;5.304;2022-09-27T02:22:29;5.07;;;2.43;;
29938;SDS011;16799;50.844;5.304;2022-09-27T02:30:50;4.20;;;2.67;;
29938;SDS011;16799;50.844;5.304;2022-09-27T02:33:17;4.20;;;2.20;;
29938;SDS011;16799;50.844;5.304;2022-09-27T02:35:46;4.47;;;3.57;;
29938;SDS011;16799;50.844;5.304;2022-09-27T02:38:12;3.30;;;2.57;;
29938;SDS011;16799;50.844;5.304;2022-09-27T02:40:44;11.20;;;2.97;;
29938;SDS011;16799;50.844;5.304;2022-09-27T02:43:11;7.17;;;2.77;;
29938;SDS011;16799;50.844;5.304;2022-09-27T02:56:25;8.63;;;1.90;;
29938;SDS011;16799;50.844;5.304;2022-09-27T02:59:02;6.47;;;2.13;;
29938;SDS011;16799;50.844;5.304;2022-09-27T03:02:32;1.90;;;1.43;;
29938;SDS011;16799;50.844;5.304;2022-09-27T03:04:43;2.60;;;2.40;;
29938;SDS011;16799;50.844;5.304;2022-09-27T03:07:19;3.27;;;2.30;;
29938;SDS011;16799;50.844;5.304;2022-09-27T03:09:47;6.40;;;2.43;;
29938;SDS011;16799;50.844;5.304;2022-09-27T03:12:15;4.30;;;2.17;;
29938;SDS011;16799;50.844;5.304;2022-09-27T03:15:00;10.83;;;1.90;;
29938;SDS011;16799;50.844;5.304;2022-09-27T03:17:26;5.23;;;1.43;;
29938;SDS011;16799;50.844;5.304;2022-09-27T03:19:52;9.80;;;2.10;;
29938;SDS011;16799;50.844;5.304;2022-09-27T03:22:17;3.67;;;1.50;;
29938;SDS011;16799;50.844;5.304;2022-09-27T03:24:43;4.20;;;1.33;;
29938;SDS011;16799;50.844;5.304;2022-09-27T03:27:10;1.90;;;1.80;;
29938;SDS011;16799;50.844;5.304;2022-09-27T03:29:35;1.60;;;1.50;;
29938;SDS011;16799;50.844;5.304;2022-09-27T03:32:01;6.43;;;1.50;;
29938;SDS011;16799;50.844;5.304;2022-09-27T03:34:28;3.10;;;1.40;;
29938;SDS011;16799;50.844;5.304;2022-09-27T03:36:53;1.17;;;1.07;;
29938;SDS011;16799;50.844;5.304;2022-09-27T03:39:19;2.17;;;1.47;;
29938;SDS011;16799;50.844;5.304;2022-09-27T03:41:45;4.43;;;1.77;;
29938;SDS011;16799;50.844;5.304;2022-09-27T03:44:11;5.53;;;1.70;;
29938;SDS011;16799;50.844;5.304;2022-09-27T03:46:36;2.10;;;1.03;;
29938;SDS011;16799;50.844;5.304;2022-09-27T03:49:02;1.60;;;1.33;;
29938;SDS011;16799;50.844;5.304;2022-09-27T03:51:28;3.53;;;1.10;;
29938;SDS011;16799;50.844;5.304;2022-09-27T03:53:54;3.40;;;1.60;;
29938;SDS011;16799;50.844;5.304;2022-09-27T03:56:19;3.80;;;1.00;;
29938;SDS011;16799;50.844;5.304;2022-09-27T03:58:45;1.53;;;1.43;;
29938;SDS011;16799;50.844;5.304;2022-09-27T04:01:11;3.10;;;1.33;;
29938;SDS011;16799;50.844;5.304;2022-09-27T04:03:37;2.03;;;1.40;;
29938;SDS011;16799;50.844;5.304;2022-09-27T04:06:03;4.23;;;1.40;;
29938;SDS011;16799;50.844;5.304;2022-09-27T04:08:29;5.53;;;1.13;;
29938;SDS011;16799;50.844;5.304;2022-09-27T04:10:55;8.37;;;1.57;;
29938;SDS011;16799;50.844;5.304;2022-09-27T04:13:21;2.30;;;1.43;;
29938;SDS011;16799;50.844;5.304;2022-09-27T04:15:47;9.53;;;1.53;;
29938;SDS011;16799;50.844;5.304;2022-09-27T04:18:13;4.83;;;1.73;;
29938;SDS011;16799;50.844;5.304;2022-09-27T04:20:38;2.53;;;1.20;;
29938;SDS011;16799;50.844;5.304;2022-09-27T04:23:04;3.77;;;2.00;;
29938;SDS011;16799;50.844;5.304;2022-09-27T04:25:30;2.30;;;1.37;;
29938;SDS011;16799;50.844;5.304;2022-09-27T04:27:57;5.60;;;1.40;;
29938;SDS011;16799;50.844;5.304;2022-09-27T04:30:23;2.00;;;1.70;;
29938;SDS011;16799;50.844;5.304;2022-09-27T04:32:50;3.80;;;1.10;;
29938;SDS011;16799;50.844;5.304;2022-09-27T04:35:16;11.13;;;1.87;;
29938;SDS011;16799;50.844;5.304;2022-09-27T04:38:00;7.37;;;1.87;;
29938;SDS011;16799;50.844;5.304;2022-09-27T04:40:26;2.07;;;1.87;;
29938;SDS011;16799;50.844;5.304;2022-09-27T04:42:52;7.53;;;2.73;;
29938;SDS011;16799;50.844;5.304;2022-09-27T04:45:18;2.80;;;2.20;;
29938;SDS011;16799;50.844;5.304;2022-09-27T04:47:45;3.63;;;2.60;;
29938;SDS011;16799;50.844;5.304;2022-09-27T04:50:12;8.50;;;2.40;;
29938;SDS011;16799;50.844;5.304;2022-09-27T04:52:39;3.30;;;1.97;;
29938;SDS011;16799;50.844;5.304;2022-09-27T04:55:05;7.00;;;2.40;;
29938;SDS011;16799;50.844;5.304;2022-09-27T04:57:32;5.87;;;2.20;;
29938;SDS011;16799;50.844;5.304;2022-09-27T04:59:58;1.67;;;1.57;;
29938;SDS011;16799;50.844;5.304;2022-09-27T05:02:24;3.80;;;2.33;;
29938;SDS011;16799;50.844;5.304;2022-09-27T05:04:51;10.00;;;1.97;;
29938;SDS011;16799;50.844;5.304;2022-09-27T05:07:17;1.80;;;1.60;;
29938;SDS011;16799;50.844;5.304;2022-09-27T05:09:43;4.83;;;1.90;;
29938;SDS011;16799;50.844;5.304;2022-09-27T05:12:09;5.13;;;1.23;;
29938;SDS011;16799;50.844;5.304;2022-09-27T05:14:36;3.23;;;1.47;;
29938;SDS011;16799;50.844;5.304;2022-09-27T05:17:02;2.50;;;1.40;;
29938;SDS011;16799;50.844;5.304;2022-09-27T05:19:27;4.30;;;1.30;;
29938;SDS011;16799;50.844;5.304;2022-09-27T05:21:53;7.93;;;1.33;;
29938;SDS011;16799;50.844;5.304;2022-09-27T05:24:18;3.73;;;1.47;;
29938;SDS011;16799;50.844;5.304;2022-09-27T05:26:45;2.70;;;1.57;;
29938;SDS011;16799;50.844;5.304;2022-09-27T05:29:11;6.40;;;1.80;;
29938;SDS011;16799;50.844;5.304;2022-09-27T05:31:37;5.90;;;2.00;;
29938;SDS011;16799;50.844;5.304;2022-09-27T05:34:03;4.30;;;2.03;;
29938;SDS011;16799;50.844;5.304;2022-09-27T05:36:29;3.60;;;1.87;;
29938;SDS011;16799;50.844;5.304;2022-09-27T05:38:54;2.90;;;1.70;;
29938;SDS011;16799;50.844;5.304;2022-09-27T05:41:20;3.27;;;2.30;;
29938;SDS011;16799;50.844;5.304;2022-09-27T05:43:46;7.00;;;1.53;;
29938;SDS011;16799;50.844;5.304;2022-09-27T05:46:11;2.87;;;1.80;;
29938;SDS011;16799;50.844;5.304;2022-09-27T05:48:37;3.40;;;1.60;;
29938;SDS011;16799;50.844;5.304;2022-09-27T05:51:03;2.60;;;2.00;;
29938;SDS011;16799;50.844;5.304;2022-09-27T05:53:29;1.70;;;1.57;;
29938;SDS011;16799;50.844;5.304;2022-09-27T05:55:59;3.03;;;1.50;;
29938;SDS011;16799;50.844;5.304;2022-09-27T05:58:25;2.70;;;1.77;;
29938;SDS011;16799;50.844;5.304;2022-09-27T06:00:52;3.60;;;2.57;;
29938;SDS011;16799;50.844;5.304;2022-09-27T06:03:18;2.90;;;1.73;;
29938;SDS011;16799;50.844;5.304;2022-09-27T06:05:44;6.27;;;2.27;;
29938;SDS011;16799;50.844;5.304;2022-09-27T06:08:10;3.50;;;2.23;;
29938;SDS011;16799;50.844;5.304;2022-09-27T06:10:37;2.67;;;2.07;;
29938;SDS011;16799;50.844;5.304;2022-09-27T06:13:09;11.90;;;3.67;;
29938;SDS011;16799;50.844;5.304;2022-09-27T06:15:36;7.73;;;4.53;;
29938;SDS011;16799;50.844;5.304;2022-09-27T06:18:04;5.03;;;3.20;;
29938;SDS011;16799;50.844;5.304;2022-09-27T06:20:32;4.00;;;2.80;;
29938;SDS011;16799;50.844;5.304;2022-09-27T06:23:14;4.50;;;4.10;;
29938;SDS011;16799;50.844;5.304;2022-09-27T06:25:42;3.40;;;3.10;;
29938;SDS011;16799;50.844;5.304;2022-09-27T06:28:08;2.90;;;2.57;;
29938;SDS011;16799;50.844;5.304;2022-09-27T06:30:37;13.00;;;3.47;;
29938;SDS011;16799;50.844;5.304;2022-09-27T06:33:04;3.80;;;2.97;;
29938;SDS011;16799;50.844;5.304;2022-09-27T06:35:30;4.00;;;2.67;;
29938;SDS011;16799;50.844;5.304;2022-09-27T06:37:56;4.57;;;3.20;;
29938;SDS011;16799;50.844;5.304;2022-09-27T06:40:22;3.03;;;2.83;;
29938;SDS011;16799;50.844;5.304;2022-09-27T06:42:51;6.50;;;3.97;;
29938;SDS011;16799;50.844;5.304;2022-09-27T06:45:17;5.10;;;3.53;;
29938;SDS011;16799;50.844;5.304;2022-09-27T06:47:43;3.20;;;2.90;;
29938;SDS011;16799;50.844;5.304;2022-09-27T06:50:08;4.03;;;3.63;;
29938;SDS011;16799;50.844;5.304;2022-09-27T06:52:36;3.90;;;3.70;;
29938;SDS011;16799;50.844;5.304;2022-09-27T06:55:02;8.70;;;4.57;;
29938;SDS011;16799;50.844;5.304;2022-09-27T06:57:29;3.83;;;3.53;;
29938;SDS011;16799;50.844;5.304;2022-09-27T07:00:14;4.73;;;3.50;;
29938;SDS011;16799;50.844;5.304;2022-09-27T07:02:50;5.03;;;4.03;;
29938;SDS011;16799;50.844;5.304;2022-09-27T07:05:18;6.97;;;4.30;;
29938;SDS011;16799;50.844;5.304;2022-09-27T07:07:44;3.87;;;3.53;;
29938;SDS011;16799;50.844;5.304;2022-09-27T07:10:12;4.03;;;3.63;;
29938;SDS011;16799;50.844;5.304;2022-09-27T07:12:38;4.63;;;4.20;;
29938;SDS011;16799;50.844;5.304;2022-09-27T07:15:04;4.77;;;4.37;;
29938;SDS011;16799;50.844;5.304;2022-09-27T07:17:30;5.73;;;4.20;;
29938;SDS011;16799;50.844;5.304;2022-09-27T07:19:56;4.63;;;3.80;;
29938;SDS011;16799;50.844;5.304;2022-09-27T07:22:22;4.30;;;3.90;;
29938;SDS011;16799;50.844;5.304;2022-09-27T07:24:48;4.67;;;4.27;;
29938;SDS011;16799;50.844;5.304;2022-09-27T07:27:13;4.10;;;3.70;;
29938;SDS011;16799;50.844;5.304;2022-09-27T07:29:39;3.10;;;2.80;;
29938;SDS011;16799;50.844;5.304;2022-09-27T07:32:05;4.80;;;2.90;;
29938;SDS011;16799;50.844;5.304;2022-09-27T07:34:34;3.33;;;2.90;;
29938;SDS011;16799;50.844;5.304;2022-09-27T07:37:00;5.47;;;4.50;;
29938;SDS011;16799;50.844;5.304;2022-09-27T07:39:32;6.00;;;3.20;;
29938;SDS011;16799;50.844;5.304;2022-09-27T07:41:58;2.77;;;2.67;;
29938;SDS011;16799;50.844;5.304;2022-09-27T07:44:24;4.77;;;3.10;;
29938;SDS011;16799;50.844;5.304;2022-09-27T07:46:49;4.83;;;3.57;;
29938;SDS011;16799;50.844;5.304;2022-09-27T07:49:15;6.33;;;3.80;;
29938;SDS011;16799;50.844;5.304;2022-09-27T07:51:41;3.20;;;3.00;;
29938;SDS011;16799;50.844;5.304;2022-09-27T07:54:06;4.50;;;3.43;;
29938;SDS011;16799;50.844;5.304;2022-09-27T07:56:32;4.70;;;4.40;;
29938;SDS011;16799;50.844;5.304;2022-09-27T07:58:58;3.70;;;3.40;;
29938;SDS011;16799;50.844;5.304;2022-09-27T08:01:23;4.20;;;4.00;;
29938;SDS011;16799;50.844;5.304;2022-09-27T08:03:49;8.60;;;4.77;;
29938;SDS011;16799;50.844;5.304;2022-09-27T08:06:15;5.00;;;4.20;;
29938;SDS011;16799;50.844;5.304;2022-09-27T08:08:41;3.87;;;3.40;;
29938;SDS011;16799;50.844;5.304;2022-09-27T08:11:12;27.40;;;15.63;;
29938;SDS011;16799;50.844;5.304;2022-09-27T08:13:43;5.90;;;5.37;;
29938;SDS011;16799;50.844;5.304;2022-09-27T08:16:10;11.27;;;6.67;;
29938;SDS011;16799;50.844;5.304;2022-09-27T08:18:38;7.47;;;6.83;;
29938;SDS011;16799;50.844;5.304;2022-09-27T08:21:03;7.10;;;6.40;;
29938;SDS011;16799;50.844;5.304;2022-09-27T08:23:29;7.43;;;6.53;;
29938;SDS011;16799;50.844;5.304;2022-09-27T08:25:55;7.00;;;6.30;;
29938;SDS011;16799;50.844;5.304;2022-09-27T08:28:23;11.13;;;7.50;;
29938;SDS011;16799;50.844;5.304;2022-09-27T08:30:50;9.73;;;6.37;;
29938;SDS011;16799;50.844;5.304;2022-09-27T08:33:16;7.67;;;6.80;;
29938;SDS011;16799;50.844;5.304;2022-09-27T08:35:41;13.67;;;7.00;;
29938;SDS011;16799;50.844;5.304;2022-09-27T08:38:08;11.83;;;6.53;;
29938;SDS011;16799;50.844;5.304;2022-09-27T08:46:24;8.93;;;5.43;;
29938;SDS011;16799;50.844;5.304;2022-09-27T08:49:13;6.30;;;5.73;;
29938;SDS011;16799;50.844;5.304;2022-09-27T08:51:45;13.03;;;6.23;;
29938;SDS011;16799;50.844;5.304;2022-09-27T08:54:22;7.00;;;5.67;;
29938;SDS011;16799;50.844;5.304;2022-09-27T08:56:59;11.97;;;5.87;;
29938;SDS011;16799;50.844;5.304;2022-09-27T08:59:30;4.63;;;4.33;;
29938;SDS011;16799;50.844;5.304;2022-09-27T09:02:02;5.47;;;4.80;;
29938;SDS011;16799;50.844;5.304;2022-09-27T09:04:36;4.40;;;4.00;;
29938;SDS011;16799;50.844;5.304;2022-09-27T09:10:06;4.50;;;4.20;;
29938;SDS011;16799;50.844;5.304;2022-09-27T09:32:47;5.13;;;3.47;;
29938;SDS011;16799;50.844;5.304;2022-09-27T09:35:41;5.10;;;2.80;;
29938;SDS011;16799;50.844;5.304;2022-09-27T09:38:13;7.90;;;4.53;;
29938;SDS011;16799;50.844;5.304;2022-09-27T09:40:48;3.70;;;3.50;;
29938;SDS011;16799;50.844;5.304;2022-09-27T09:43:24;5.33;;;2.93;;
29938;SDS011;16799;50.844;5.304;2022-09-27T09:45:59;4.50;;;3.43;;
29938;SDS011;16799;50.844;5.304;2022-09-27T09:48:48;4.90;;;2.77;;
29938;SDS011;16799;50.844;5.304;2022-09-27T09:51:23;4.30;;;3.20;;
29938;SDS011;16799;50.844;5.304;2022-09-27T10:00:22;7.53;;;2.33;;
29938;SDS011;16799;50.844;5.304;2022-09-27T10:02:36;3.13;;;2.07;;
29938;SDS011;16799;50.844;5.304;2022-09-27T10:05:03;2.17;;;1.83;;
29938;SDS011;16799;50.844;5.304;2022-09-27T10:07:31;14.23;;;2.23;;
29938;SDS011;16799;50.844;5.304;2022-09-27T10:10:01;5.63;;;2.00;;
29938;SDS011;16799;50.844;5.304;2022-09-27T10:12:29;4.07;;;1.93;;
29938;SDS011;16799;50.844;5.304;2022-09-27T10:14:59;1.80;;;1.70;;
29938;SDS011;16799;50.844;5.304;2022-09-27T10:17:34;2.83;;;2.00;;
29938;SDS011;16799;50.844;5.304;2022-09-27T10:20:04;2.17;;;2.07;;
29938;SDS011;16799;50.844;5.304;2022-09-27T10:22:35;3.90;;;1.80;;
29938;SDS011;16799;50.844;5.304;2022-09-27T10:25:04;2.60;;;2.10;;
29938;SDS011;16799;50.844;5.304;2022-09-27T10:30:03;7.00;;;2.30;;
29938;SDS011;16799;50.844;5.304;2022-09-27T10:32:30;2.77;;;1.70;;
29938;SDS011;16799;50.844;5.304;2022-09-27T10:37:53;6.03;;;2.00;;
29938;SDS011;16799;50.844;5.304;2022-09-27T10:40:39;4.33;;;2.20;;
29938;SDS011;16799;50.844;5.304;2022-09-27T10:43:21;2.33;;;2.07;;
29938;SDS011;16799;50.844;5.304;2022-09-27T10:46:52;11.47;;;1.87;;
29938;SDS011;16799;50.844;5.304;2022-09-27T10:49:09;4.57;;;1.60;;
29938;SDS011;16799;50.844;5.304;2022-09-27T10:51:43;3.37;;;1.50;;
29938;SDS011;16799;50.844;5.304;2022-09-27T10:54:27;2.50;;;1.73;;
29938;SDS011;16799;50.844;5.304;2022-09-27T10:56:57;1.83;;;1.53;;
29938;SDS011;16799;50.844;5.304;2022-09-27T10:59:23;2.00;;;1.80;;
29938;SDS011;16799;50.844;5.304;2022-09-27T11:01:52;4.53;;;2.80;;
29938;SDS011;16799;50.844;5.304;2022-09-27T11:04:19;6.57;;;2.30;;
29938;SDS011;16799;50.844;5.304;2022-09-27T11:07:12;1.40;;;1.30;;
29938;SDS011;16799;50.844;5.304;2022-09-27T11:09:47;3.83;;;1.63;;
29938;SDS011;16799;50.844;5.304;2022-09-27T11:12:26;2.27;;;1.17;;
29938;SDS011;16799;50.844;5.304;2022-09-27T11:15:02;2.93;;;1.07;;
29938;SDS011;16799;50.844;5.304;2022-09-27T11:20:17;2.93;;;1.87;;
29938;SDS011;16799;50.844;5.304;2022-09-27T11:29:07;5.07;;;1.97;;
29938;SDS011;16799;50.844;5.304;2022-09-27T11:33:59;4.87;;;1.63;;
29938;SDS011;16799;50.844;5.304;2022-09-27T11:45:59;5.13;;;2.00;;
29938;SDS011;16799;50.844;5.304;2022-09-27T11:51:21;4.20;;;2.00;;
29938;SDS011;16799;50.844;5.304;2022-09-27T11:54:02;4.90;;;2.00;;
29938;SDS011;16799;50.844;5.304;2022-09-27T11:59:26;4.13;;;2.00;;
29938;SDS011;16799;50.844;5.304;2022-09-27T12:07:51;1.90;;;1.63;;
29938;SDS011;16799;50.844;5.304;2022-09-27T12:10:28;4.30;;;1.70;;
29938;SDS011;16799;50.844;5.304;2022-09-27T12:12:55;9.07;;;2.57;;
29938;SDS011;16799;50.844;5.304;2022-09-27T12:15:26;8.43;;;2.47;;
29938;SDS011;16799;50.844;5.304;2022-09-27T12:18:19;3.20;;;2.07;;
29938;SDS011;16799;50.844;5.304;2022-09-27T12:20:52;3.80;;;2.20;;
29938;SDS011;16799;50.844;5.304;2022-09-27T12:23:21;5.00;;;2.40;;
29938;SDS011;16799;50.844;5.304;2022-09-27T12:25:54;4.03;;;2.43;;
29938;SDS011;16799;50.844;5.304;2022-09-27T12:28:48;7.43;;;2.50;;
29938;SDS011;16799;50.844;5.304;2022-09-27T12:31:20;4.83;;;2.37;;
29938;SDS011;16799;50.844;5.304;2022-09-27T12:33:52;7.17;;;5.80;;
29938;SDS011;16799;50.844;5.304;2022-09-27T12:36:36;6.13;;;5.50;;
29938;SDS011;16799;50.844;5.304;2022-09-27T12:41:50;7.87;;;3.00;;
29938;SDS011;16799;50.844;5.304;2022-09-27T12:44:37;1.90;;;1.40;;
29938;SDS011;16799;50.844;5.304;2022-09-27T12:52:16;5.53;;;1.77;;
29938;SDS011;16799;50.844;5.304;2022-09-27T13:00:11;2.20;;;0.90;;
29938;SDS011;16799;50.844;5.304;2022-09-27T13:11:05;2.10;;;1.07;;
29938;SDS011;16799;50.844;5.304;2022-09-27T13:13:32;3.30;;;2.23;;
29938;SDS011;16799;50.844;5.304;2022-09-27T13:16:00;3.43;;;1.30;;
29938;SDS011;16799;50.844;5.304;2022-09-27T13:20:54;4.03;;;2.00;;
29938;SDS011;16799;50.844;5.304;2022-09-27T13:25:47;1.87;;;1.13;;
29938;SDS011;16799;50.844;5.304;2022-09-27T13:29:01;9.00;;;1.77;;
29938;SDS011;16799;50.844;5.304;2022-09-27T13:31:16;4.47;;;1.50;;
29938;SDS011;16799;50.844;5.304;2022-09-27T13:37:21;4.03;;;2.00;;
29938;SDS011;16799;50.844;5.304;2022-09-27T13:42:44;3.07;;;1.40;;
29938;SDS011;16799;50.844;5.304;2022-09-27T13:45:22;2.60;;;1.67;;
29938;SDS011;16799;50.844;5.304;2022-09-27T13:47:53;8.03;;;2.73;;
29938;SDS011;16799;50.844;5.304;2022-09-27T13:50:44;8.07;;;2.07;;
29938;SDS011;16799;50.844;5.304;2022-09-27T13:53:28;5.87;;;1.60;;
29938;SDS011;16799;50.844;5.304;2022-09-27T13:55:59;5.43;;;1.43;;
29938;SDS011;16799;50.844;5.304;2022-09-27T14:01:12;10.37;;;1.90;;
29938;SDS011;16799;50.844;5.304;2022-09-27T14:03:53;13.00;;;1.50;;
29938;SDS011;16799;50.844;5.304;2022-09-27T14:06:25;2.50;;;1.33;;
29938;SDS011;16799;50.844;5.304;2022-09-27T14:11:51;10.07;;;2.77;;
29938;SDS011;16799;50.844;5.304;2022-09-27T14:14:23;3.23;;;1.80;;
29938;SDS011;16799;50.844;5.304;2022-09-27T14:16:52;4.27;;;1.73;;
29938;SDS011;16799;50.844;5.304;2022-09-27T14:19:21;6.57;;;2.37;;
29938;SDS011;16799;50.844;5.304;2022-09-27T14:21:50;3.77;;;1.73;;
29938;SDS011;16799;50.844;5.304;2022-09-27T14:26:48;4.07;;;1.80;;
29938;SDS011;16799;50.844;5.304;2022-09-27T14:29:19;2.17;;;1.60;;
29938;SDS011;16799;50.844;5.304;2022-09-27T14:31:46;1.93;;;1.33;;
29938;SDS011;16799;50.844;5.304;2022-09-27T14:34:27;3.07;;;2.00;;
29938;SDS011;16799;50.844;5.304;2022-09-27T14:36:53;4.20;;;1.50;;
29938;SDS011;16799;50.844;5.304;2022-09-27T14:39:38;4.10;;;2.30;;
29938;SDS011;16799;50.844;5.304;2022-09-27T14:42:15;8.93;;;2.00;;
29938;SDS011;16799;50.844;5.304;2022-09-27T14:44:46;8.30;;;2.13;;
29938;SDS011;16799;50.844;5.304;2022-09-27T14:47:23;2.03;;;1.60;;
29938;SDS011;16799;50.844;5.304;2022-09-27T14:49:54;7.10;;;1.90;;
29938;SDS011;16799;50.844;5.304;2022-09-27T14:52:27;2.00;;;1.63;;
29938;SDS011;16799;50.844;5.304;2022-09-27T14:57:24;7.80;;;1.73;;
29938;SDS011;16799;50.844;5.304;2022-09-27T14:59:52;2.10;;;1.70;;
29938;SDS011;16799;50.844;5.304;2022-09-27T15:02:18;4.80;;;2.10;;
29938;SDS011;16799;50.844;5.304;2022-09-27T15:04:48;6.80;;;2.40;;
29938;SDS011;16799;50.844;5.304;2022-09-27T15:07:18;3.83;;;2.43;;
29938;SDS011;16799;50.844;5.304;2022-09-27T15:09:46;4.30;;;1.53;;
29938;SDS011;16799;50.844;5.304;2022-09-27T15:12:16;1.20;;;1.10;;
29938;SDS011;16799;50.844;5.304;2022-09-27T15:14:48;4.07;;;2.23;;
29938;SDS011;16799;50.844;5.304;2022-09-27T15:17:16;4.00;;;1.50;;
29938;SDS011;16799;50.844;5.304;2022-09-27T15:22:52;1.57;;;1.30;;
29938;SDS011;16799;50.844;5.304;2022-09-27T15:25:21;1.80;;;1.70;;
29938;SDS011;16799;50.844;5.304;2022-09-27T15:28:13;1.90;;;1.53;;
29938;SDS011;16799;50.844;5.304;2022-09-27T15:30:48;7.80;;;1.10;;
29938;SDS011;16799;50.844;5.304;2022-09-27T15:33:19;7.07;;;1.53;;
29938;SDS011;16799;50.844;5.304;2022-09-27T15:35:51;10.00;;;1.67;;
29938;SDS011;16799;50.844;5.304;2022-09-27T15:38:25;21.20;;;9.90;;
29938;SDS011;16799;50.844;5.304;2022-09-27T15:45:50;3.70;;;2.37;;
29938;SDS011;16799;50.844;5.304;2022-09-27T15:48:17;9.80;;;2.80;;
29938;SDS011;16799;50.844;5.304;2022-09-27T15:50:44;7.43;;;2.23;;
29938;SDS011;16799;50.844;5.304;2022-09-27T15:53:11;2.83;;;2.13;;
29938;SDS011;16799;50.844;5.304;2022-09-27T15:55:57;8.70;;;3.67;;
29938;SDS011;16799;50.844;5.304;2022-09-27T15:58:23;3.17;;;1.80;;
29938;SDS011;16799;50.844;5.304;2022-09-27T16:00:50;3.20;;;1.67;;
29938;SDS011;16799;50.844;5.304;2022-09-27T16:03:21;6.33;;;1.90;;
29938;SDS011;16799;50.844;5.304;2022-09-27T16:05:48;2.60;;;1.37;;
29938;SDS011;16799;50.844;5.304;2022-09-27T16:08:13;2.80;;;1.70;;
29938;SDS011;16799;50.844;5.304;2022-09-27T16:10:52;2.60;;;2.10;;
29938;SDS011;16799;50.844;5.304;2022-09-27T16:13:20;13.33;;;2.60;;
29938;SDS011;16799;50.844;5.304;2022-09-27T16:15:46;4.37;;;2.63;;
29938;SDS011;16799;50.844;5.304;2022-09-27T16:18:13;3.07;;;2.33;;
29938;SDS011;16799;50.844;5.304;2022-09-27T16:20:39;4.97;;;2.57;;
29938;SDS011;16799;50.844;5.304;2022-09-27T16:23:05;6.30;;;3.33;;
29938;SDS011;16799;50.844;5.304;2022-09-27T16:25:31;5.83;;;2.67;;
29938;SDS011;16799;50.844;5.304;2022-09-27T16:27:57;6.30;;;3.00;;
29938;SDS011;16799;50.844;5.304;2022-09-27T16:30:24;2.37;;;2.13;;
29938;SDS011;16799;50.844;5.304;2022-09-27T16:32:50;8.73;;;2.87;;
29938;SDS011;16799;50.844;5.304;2022-09-27T16:35:17;7.23;;;3.73;;
29938;SDS011;16799;50.844;5.304;2022-09-27T16:37:43;4.33;;;3.63;;
29938;SDS011;16799;50.844;5.304;2022-09-27T16:40:10;4.40;;;3.40;;
29938;SDS011;16799;50.844;5.304;2022-09-27T16:42:37;4.37;;;3.57;;
29938;SDS011;16799;50.844;5.304;2022-09-27T16:45:04;10.20;;;8.90;;
29938;SDS011;16799;50.844;5.304;2022-09-27T16:47:31;12.50;;;6.07;;
29938;SDS011;16799;50.844;5.304;2022-09-27T16:49:57;14.20;;;10.87;;
29938;SDS011;16799;50.844;5.304;2022-09-27T16:52:41;24.90;;;15.80;;
29938;SDS011;16799;50.844;5.304;2022-09-27T16:55:11;14.60;;;13.00;;
29938;SDS011;16799;50.844;5.304;2022-09-27T16:57:37;40.83;;;19.67;;
29938;SDS011;16799;50.844;5.304;2022-09-27T17:00:04;27.93;;;17.40;;
29938;SDS011;16799;50.844;5.304;2022-09-27T17:02:30;21.90;;;12.87;;
29938;SDS011;16799;50.844;5.304;2022-09-27T17:04:56;23.90;;;15.23;;
29938;SDS011;16799;50.844;5.304;2022-09-27T17:07:22;30.33;;;16.63;;
29938;SDS011;16799;50.844;5.304;2022-09-27T17:09:48;30.50;;;16.50;;
29938;SDS011;16799;50.844;5.304;2022-09-27T17:12:14;25.07;;;17.80;;
29938;SDS011;16799;50.844;5.304;2022-09-27T17:14:40;28.53;;;18.00;;
29938;SDS011;16799;50.844;5.304;2022-09-27T17:17:05;14.60;;;11.50;;
29938;SDS011;16799;50.844;5.304;2022-09-27T17:19:32;19.27;;;14.20;;
29938;SDS011;16799;50.844;5.304;2022-09-27T17:21:58;15.83;;;13.57;;
29938;SDS011;16799;50.844;5.304;2022-09-27T17:24:23;27.63;;;7.70;;
29938;SDS011;16799;50.844;5.304;2022-09-27T17:26:49;12.83;;;6.73;;
29938;SDS011;16799;50.844;5.304;2022-09-27T17:29:15;10.53;;;7.57;;
29938;SDS011;16799;50.844;5.304;2022-09-27T17:31:42;5.67;;;5.10;;
29938;SDS011;16799;50.844;5.304;2022-09-27T17:34:09;8.13;;;3.90;;
29938;SDS011;16799;50.844;5.304;2022-09-27T17:36:37;5.37;;;4.87;;
29938;SDS011;16799;50.844;5.304;2022-09-27T17:39:05;14.07;;;5.87;;
29938;SDS011;16799;50.844;5.304;2022-09-27T17:41:33;9.67;;;3.93;;
29938;SDS011;16799;50.844;5.304;2022-09-27T17:44:01;3.90;;;3.60;;
29938;SDS011;16799;50.844;5.304;2022-09-27T17:46:30;16.17;;;6.03;;